sensor_id;sensor_type;location;lat;lon;timestamp;pressure;altitude;pressure_sealevel;temperature;humidity
40982;BME280;26708;50.304;19.028;2023-03-20T00:00:54;98307.19;;;11.07;39.57
40982;BME280;26708;50.304;19.028;2023-03-20T00:03:02;98313.31;;;11.09;39.48
40982;BME280;26708;50.304;19.028;2023-03-20T00:05:15;98295.06;;;11.00;39.49
40982;BME280;26708;50.304;19.028;2023-03-20T00:07:23;98308.03;;;11.13;39.26
40982;BME280;26708;50.304;19.028;2023-03-20T00:09:28;98300.19;;;11.12;39.39
40982;BME280;26708;50.304;19.028;2023-03-20T00:11:35;98301.06;;;11.12;39.48
40982;BME280;26708;50.304;19.028;2023-03-20T00:13:46;98291.47;;;11.08;39.35
40982;BME280;26708;50.304;19.028;2023-03-20T00:15:51;98279.38;;;10.97;39.36
40982;BME280;26708;50.304;19.028;2023-03-20T00:17:57;98314.13;;;11.15;39.29
40982;BME280;26708;50.304;19.028;2023-03-20T00:20:08;98311.50;;;11.14;39.29
40982;BME280;26708;50.304;19.028;2023-03-20T00:22:17;98307.16;;;11.13;39.30
40982;BME280;26708;50.304;19.028;2023-03-20T00:24:24;98300.25;;;11.04;39.36
40982;BME280;26708;50.304;19.028;2023-03-20T00:26:33;98304.56;;;11.10;39.34
40982;BME280;26708;50.304;19.028;2023-03-20T00:28:41;98264.59;;;10.84;39.36
40982;BME280;26708;50.304;19.028;2023-03-20T00:30:48;98292.47;;;10.97;39.45
40982;BME280;26708;50.304;19.028;2023-03-20T00:32:56;98254.22;;;10.75;39.56
40982;BME280;26708;50.304;19.028;2023-03-20T00:35:22;98233.38;;;10.63;39.57
40982;BME280;26708;50.304;19.028;2023-03-20T00:37:29;98257.66;;;10.81;39.58
40982;BME280;26708;50.304;19.028;2023-03-20T00:39:34;98302.94;;;11.00;39.52
40982;BME280;26708;50.304;19.028;2023-03-20T00:41:43;98293.31;;;11.00;39.62
40982;BME280;26708;50.304;19.028;2023-03-20T00:43:56;98263.75;;;10.83;39.64
40982;BME280;26708;50.304;19.028;2023-03-20T00:46:11;98295.06;;;10.98;39.60
40982;BME280;26708;50.304;19.028;2023-03-20T00:48:17;98290.72;;;10.96;39.69
40982;BME280;26708;50.304;19.028;2023-03-20T00:50:29;98204.81;;;10.39;39.68
40982;BME280;26708;50.304;19.028;2023-03-20T00:52:35;98276.88;;;10.80;39.73
40982;BME280;26708;50.304;19.028;2023-03-20T00:54:39;98286.41;;;10.90;39.77
40982;BME280;26708;50.304;19.028;2023-03-20T00:56:50;98289.00;;;10.87;39.78
40982;BME280;26708;50.304;19.028;2023-03-20T00:59:02;98284.69;;;10.85;39.85
40982;BME280;26708;50.304;19.028;2023-03-20T01:01:07;98289.94;;;10.83;39.83
40982;BME280;26708;50.304;19.028;2023-03-20T01:03:15;98243.91;;;10.57;39.92
40982;BME280;26708;50.304;19.028;2023-03-20T01:05:26;98278.59;;;10.80;39.98
40982;BME280;26708;50.304;19.028;2023-03-20T01:07:31;98278.59;;;10.80;39.92
40982;BME280;26708;50.304;19.028;2023-03-20T01:09:37;98281.22;;;10.81;40.04
40982;BME280;26708;50.304;19.028;2023-03-20T01:11:44;98276.00;;;10.78;40.13
40982;BME280;26708;50.304;19.028;2023-03-20T01:13:49;98253.44;;;10.65;40.13
40982;BME280;26708;50.304;19.028;2023-03-20T01:15:55;98266.44;;;10.74;39.98
40982;BME280;26708;50.304;19.028;2023-03-20T01:18:01;98277.69;;;10.85;40.02
40982;BME280;26708;50.304;19.028;2023-03-20T01:20:13;98286.38;;;10.87;39.86
40982;BME280;26708;50.304;19.028;2023-03-20T01:22:21;98280.28;;;10.91;39.84
40982;BME280;26708;50.304;19.028;2023-03-20T01:24:26;98279.38;;;10.97;39.91
40982;BME280;26708;50.304;19.028;2023-03-20T01:26:34;98288.06;;;11.00;39.75
40982;BME280;26708;50.304;19.028;2023-03-20T01:28:40;98281.03;;;11.05;39.77
40982;BME280;26708;50.304;19.028;2023-03-20T01:30:47;98253.25;;;10.89;39.88
40982;BME280;26708;50.304;19.028;2023-03-20T01:32:53;98285.34;;;11.09;39.70
40982;BME280;26708;50.304;19.028;2023-03-20T01:34:59;98282.72;;;11.11;39.62
40982;BME280;26708;50.304;19.028;2023-03-20T01:37:10;98287.09;;;11.10;39.73
40982;BME280;26708;50.304;19.028;2023-03-20T01:39:21;98293.16;;;11.15;39.74
40982;BME280;26708;50.304;19.028;2023-03-20T01:41:32;98269.69;;;11.03;39.64
40982;BME280;26708;50.304;19.028;2023-03-20T01:43:38;98277.50;;;11.12;39.68
40982;BME280;26708;50.304;19.028;2023-03-20T01:45:53;98285.25;;;11.20;39.57
40982;BME280;26708;50.304;19.028;2023-03-20T01:48:14;98292.22;;;11.22;39.48
40982;BME280;26708;50.304;19.028;2023-03-20T01:50:29;98294.84;;;11.22;39.63
40982;BME280;26708;50.304;19.028;2023-03-20T01:52:40;98298.31;;;11.26;39.38
40982;BME280;26708;50.304;19.028;2023-03-20T01:54:48;98298.31;;;11.27;39.46
40982;BME280;26708;50.304;19.028;2023-03-20T01:57:00;98236.63;;;10.93;39.41
40982;BME280;26708;50.304;19.028;2023-03-20T01:59:14;98267.81;;;11.19;39.27
40982;BME280;26708;50.304;19.028;2023-03-20T02:01:26;98299.94;;;11.34;39.26
40982;BME280;26708;50.304;19.028;2023-03-20T02:03:33;98289.56;;;11.28;39.15
40982;BME280;26708;50.304;19.028;2023-03-20T02:05:58;98277.34;;;11.27;39.22
40982;BME280;26708;50.304;19.028;2023-03-20T02:08:27;98287.75;;;11.33;39.13
40982;BME280;26708;50.304;19.028;2023-03-20T02:10:42;98299.00;;;11.41;38.98
40982;BME280;26708;50.304;19.028;2023-03-20T02:12:58;98302.50;;;11.40;39.01
40982;BME280;26708;50.304;19.028;2023-03-20T02:15:15;98306.03;;;11.41;39.05
40982;BME280;26708;50.304;19.028;2023-03-20T02:17:50;98286.84;;;11.34;39.13
40982;BME280;26708;50.304;19.028;2023-03-20T02:20:06;98309.47;;;11.43;38.99
40982;BME280;26708;50.304;19.028;2023-03-20T02:22:42;98246.94;;;11.10;38.86
40982;BME280;26708;50.304;19.028;2023-03-20T02:25:27;98267.81;;;11.19;39.06
40982;BME280;26708;50.304;19.028;2023-03-20T02:28:31;98292.09;;;11.34;38.97
40982;BME280;26708;50.304;19.028;2023-03-20T02:31:16;98299.06;;;11.38;39.08
40982;BME280;26708;50.304;19.028;2023-03-20T02:34:03;98299.06;;;11.38;39.06
40982;BME280;26708;50.304;19.028;2023-03-20T02:39:23;98299.94;;;11.39;39.19
40982;BME280;26708;50.304;19.028;2023-03-20T02:41:47;98299.91;;;11.40;39.14
40982;BME280;26708;50.304;19.028;2023-03-20T02:44:06;98274.69;;;11.29;39.10
40982;BME280;26708;50.304;19.028;2023-03-20T02:46:27;98294.59;;;11.45;39.06
40982;BME280;26708;50.304;19.028;2023-03-20T02:48:55;98277.25;;;11.35;39.04
40982;BME280;26708;50.304;19.028;2023-03-20T02:51:13;98273.72;;;11.37;38.99
40982;BME280;26708;50.304;19.028;2023-03-20T02:53:34;98296.28;;;11.52;38.93
40982;BME280;26708;50.304;19.028;2023-03-20T02:55:55;98290.16;;;11.54;38.88
40982;BME280;26708;50.304;19.028;2023-03-20T02:58:13;98275.38;;;11.47;38.94
40982;BME280;26708;50.304;19.028;2023-03-20T03:00:28;98285.78;;;11.55;38.91
40982;BME280;26708;50.304;19.028;2023-03-20T03:02:46;98288.38;;;11.56;38.96
40982;BME280;26708;50.304;19.028;2023-03-20T03:05:00;98292.75;;;11.56;38.92
40982;BME280;26708;50.304;19.028;2023-03-20T03:07:12;98281.44;;;11.52;38.97
40982;BME280;26708;50.304;19.028;2023-03-20T03:09:24;98283.22;;;11.50;39.11
40982;BME280;26708;50.304;19.028;2023-03-20T03:11:42;98285.84;;;11.46;39.03
40982;BME280;26708;50.304;19.028;2023-03-20T03:13:54;98277.25;;;11.36;39.18
40982;BME280;26708;50.304;19.028;2023-03-20T03:16:07;98275.50;;;11.35;39.20
40982;BME280;26708;50.304;19.028;2023-03-20T03:18:19;98284.16;;;11.43;39.29
40982;BME280;26708;50.304;19.028;2023-03-20T03:20:29;98271.19;;;11.30;39.37
40982;BME280;26708;50.304;19.028;2023-03-20T03:22:37;98281.59;;;11.36;39.38
40982;BME280;26708;50.304;19.028;2023-03-20T03:24:44;98292.03;;;11.40;39.39
40982;BME280;26708;50.304;19.028;2023-03-20T03:26:52;98287.69;;;11.38;39.35
40982;BME280;26708;50.304;19.028;2023-03-20T03:29:04;98269.50;;;11.26;39.35
40982;BME280;26708;50.304;19.028;2023-03-20T03:31:17;98282.50;;;11.36;39.44
40982;BME280;26708;50.304;19.028;2023-03-20T03:33:30;98238.25;;;11.06;39.26
40982;BME280;26708;50.304;19.028;2023-03-20T03:35:39;98297.38;;;11.33;39.64
40982;BME280;26708;50.304;19.028;2023-03-20T03:37:53;98263.47;;;11.16;39.60
40982;BME280;26708;50.304;19.028;2023-03-20T03:40:14;98287.78;;;11.32;39.51
40982;BME280;26708;50.304;19.028;2023-03-20T03:42:34;98286.00;;;11.32;39.62
40982;BME280;26708;50.304;19.028;2023-03-20T03:44:49;98284.28;;;11.31;39.57
40982;BME280;26708;50.304;19.028;2023-03-20T03:47:05;98284.28;;;11.31;39.58
40982;BME280;26708;50.304;19.028;2023-03-20T03:49:19;98284.31;;;11.28;39.74
40982;BME280;26708;50.304;19.028;2023-03-20T03:51:30;98293.97;;;11.25;39.75
40982;BME280;26708;50.304;19.028;2023-03-20T03:53:49;98254.03;;;11.02;39.77
40982;BME280;26708;50.304;19.028;2023-03-20T03:56:05;98240.13;;;10.94;39.80
40982;BME280;26708;50.304;19.028;2023-03-20T03:58:20;98269.69;;;11.08;39.81
40982;BME280;26708;50.304;19.028;2023-03-20T04:00:33;98260.06;;;11.07;39.93
40982;BME280;26708;50.304;19.028;2023-03-20T04:02:43;98286.16;;;11.17;39.90
40982;BME280;26708;50.304;19.028;2023-03-20T04:04:52;98288.78;;;11.17;39.79
40982;BME280;26708;50.304;19.028;2023-03-20T04:06:58;98289.66;;;11.16;39.95
40982;BME280;26708;50.304;19.028;2023-03-20T04:09:03;98282.69;;;11.14;39.97
40982;BME280;26708;50.304;19.028;2023-03-20T04:11:14;98295.81;;;11.12;40.15
40982;BME280;26708;50.304;19.028;2023-03-20T04:13:25;98288.84;;;11.10;40.25
40982;BME280;26708;50.304;19.028;2023-03-20T04:15:30;98291.53;;;11.05;40.24
40982;BME280;26708;50.304;19.028;2023-03-20T04:17:35;98291.53;;;11.05;40.41
40982;BME280;26708;50.304;19.028;2023-03-20T04:19:40;98282.78;;;11.06;40.45
40982;BME280;26708;50.304;19.028;2023-03-20T04:21:45;98291.53;;;11.05;40.45
40982;BME280;26708;50.304;19.028;2023-03-20T04:23:50;98285.41;;;11.05;40.56
40982;BME280;26708;50.304;19.028;2023-03-20T04:25:56;98286.28;;;11.05;40.43
40982;BME280;26708;50.304;19.028;2023-03-20T04:28:04;98280.16;;;11.05;40.64
40982;BME280;26708;50.304;19.028;2023-03-20T04:30:21;98288.00;;;11.06;40.70
40982;BME280;26708;50.304;19.028;2023-03-20T04:32:44;98276.75;;;11.00;40.77
40982;BME280;26708;50.304;19.028;2023-03-20T04:34:55;98282.78;;;11.03;40.89
40982;BME280;26708;50.304;19.028;2023-03-20T04:37:22;98287.16;;;11.04;40.88
40982;BME280;26708;50.304;19.028;2023-03-20T04:39:53;98273.31;;;10.90;41.02
40982;BME280;26708;50.304;19.028;2023-03-20T04:41:58;98293.28;;;11.02;41.13
40982;BME280;26708;50.304;19.028;2023-03-20T04:44:03;98266.31;;;10.86;41.01
40982;BME280;26708;50.304;19.028;2023-03-20T04:46:12;98295.03;;;11.01;41.00
40982;BME280;26708;50.304;19.028;2023-03-20T04:48:17;98292.44;;;11.00;41.13
40982;BME280;26708;50.304;19.028;2023-03-20T04:50:22;98279.41;;;10.92;41.30
40982;BME280;26708;50.304;19.028;2023-03-20T04:52:30;98271.56;;;10.91;41.19
40982;BME280;26708;50.304;19.028;2023-03-20T04:54:35;98276.81;;;10.89;41.22
40982;BME280;26708;50.304;19.028;2023-03-20T04:56:39;98297.66;;;11.01;41.35
40982;BME280;26708;50.304;19.028;2023-03-20T04:58:54;98294.22;;;10.95;41.38
40982;BME280;26708;50.304;19.028;2023-03-20T05:01:00;98282.06;;;10.85;41.44
40982;BME280;26708;50.304;19.028;2023-03-20T05:03:07;98306.44;;;10.97;41.44
40982;BME280;26708;50.304;19.028;2023-03-20T05:05:11;98283.84;;;10.81;41.56
40982;BME280;26708;50.304;19.028;2023-03-20T05:07:18;98289.88;;;10.86;41.61
40982;BME280;26708;50.304;19.028;2023-03-20T05:09:31;98292.53;;;10.82;41.77
40982;BME280;26708;50.304;19.028;2023-03-20T05:11:38;98289.97;;;10.80;41.79
40982;BME280;26708;50.304;19.028;2023-03-20T05:13:54;98321.31;;;10.92;41.83
40982;BME280;26708;50.304;19.028;2023-03-20T05:15:58;98300.41;;;10.83;41.90
40982;BME280;26708;50.304;19.028;2023-03-20T05:18:17;98284.81;;;10.70;41.90
40982;BME280;26708;50.304;19.028;2023-03-20T05:20:41;98303.06;;;10.79;42.14
40982;BME280;26708;50.304;19.028;2023-03-20T05:23:08;98310.00;;;10.83;42.05
40982;BME280;26708;50.304;19.028;2023-03-20T05:25:43;98300.50;;;10.68;42.20
40982;BME280;26708;50.304;19.028;2023-03-20T05:28:11;98307.44;;;10.72;42.15
40982;BME280;26708;50.304;19.028;2023-03-20T05:30:34;98279.66;;;10.61;42.24
40982;BME280;26708;50.304;19.028;2023-03-20T05:32:59;98269.19;;;10.56;42.21
40982;BME280;26708;50.304;19.028;2023-03-20T05:35:33;98288.28;;;10.72;42.38
40982;BME280;26708;50.304;19.028;2023-03-20T05:38:01;98305.63;;;10.85;42.42
40982;BME280;26708;50.304;19.028;2023-03-20T05:40:16;98310.78;;;10.95;42.42
40982;BME280;26708;50.304;19.028;2023-03-20T05:42:44;98311.59;;;11.03;42.22
40982;BME280;26708;50.304;19.028;2023-03-20T05:45:03;98295.06;;;10.98;42.31
40982;BME280;26708;50.304;19.028;2023-03-20T05:47:26;98258.47;;;10.86;42.24
40982;BME280;26708;50.304;19.028;2023-03-20T05:49:49;98313.16;;;11.25;42.11
40982;BME280;26708;50.304;19.028;2023-03-20T05:52:03;98303.47;;;11.33;42.08
40982;BME280;26708;50.304;19.028;2023-03-20T05:54:14;98296.47;;;11.35;42.25
40982;BME280;26708;50.304;19.028;2023-03-20T05:56:39;98311.94;;;11.56;42.08
40982;BME280;26708;50.304;19.028;2023-03-20T05:59:07;98300.63;;;11.54;42.18
40982;BME280;26708;50.304;19.028;2023-03-20T06:01:30;98310.91;;;11.74;42.08
40982;BME280;26708;50.304;19.028;2023-03-20T06:03:42;98307.31;;;11.81;42.05
40982;BME280;26708;50.304;19.028;2023-03-20T06:05:52;98317.69;;;11.91;41.99
40982;BME280;26708;50.304;19.028;2023-03-20T06:08:00;98299.34;;;11.91;42.11
40982;BME280;26708;50.304;19.028;2023-03-20T06:10:07;98313.06;;;12.11;42.04
40982;BME280;26708;50.304;19.028;2023-03-20T06:12:13;98283.53;;;11.97;42.09
40982;BME280;26708;50.304;19.028;2023-03-20T06:14:18;98319.09;;;12.19;42.27
40982;BME280;26708;50.304;19.028;2023-03-20T06:16:30;98313.00;;;12.17;42.57
40982;BME280;26708;50.304;19.028;2023-03-20T06:18:35;98331.25;;;12.26;42.67
40982;BME280;26708;50.304;19.028;2023-03-20T06:20:41;98333.84;;;12.29;42.81
40982;BME280;26708;50.304;19.028;2023-03-20T06:22:46;98336.44;;;12.32;43.05
40982;BME280;26708;50.304;19.028;2023-03-20T06:24:54;98339.09;;;12.29;43.27
40982;BME280;26708;50.304;19.028;2023-03-20T06:27:06;98341.66;;;12.33;43.61
40982;BME280;26708;50.304;19.028;2023-03-20T06:29:10;98344.31;;;12.32;43.94
40982;BME280;26708;50.304;19.028;2023-03-20T06:31:16;98337.44;;;12.22;44.36
40982;BME280;26708;50.304;19.028;2023-03-20T06:33:21;98345.25;;;12.25;44.70
40982;BME280;26708;50.304;19.028;2023-03-20T06:35:32;98347.06;;;12.23;44.91
40982;BME280;26708;50.304;19.028;2023-03-20T06:37:38;98356.69;;;12.21;45.23
40982;BME280;26708;50.304;19.028;2023-03-20T06:39:49;98354.03;;;12.22;45.42
40982;BME280;26708;50.304;19.028;2023-03-20T06:41:56;98321.94;;;12.04;45.50
40982;BME280;26708;50.304;19.028;2023-03-20T06:44:02;98361.06;;;12.22;45.46
40982;BME280;26708;50.304;19.028;2023-03-20T06:46:26;98336.75;;;12.09;45.37
40982;BME280;26708;50.304;19.028;2023-03-20T06:48:31;98365.47;;;12.20;45.57
40982;BME280;26708;50.304;19.028;2023-03-20T06:50:41;98347.22;;;12.09;45.37
40982;BME280;26708;50.304;19.028;2023-03-20T06:52:49;98321.97;;;12.01;45.55
40982;BME280;26708;50.304;19.028;2023-03-20T06:55:17;98366.25;;;12.25;45.55
40982;BME280;26708;50.304;19.028;2023-03-20T06:57:25;98368.00;;;12.26;45.35
40982;BME280;26708;50.304;19.028;2023-03-20T06:59:30;98377.63;;;12.25;45.39
40982;BME280;26708;50.304;19.028;2023-03-20T07:01:35;98367.13;;;12.25;45.40
40982;BME280;26708;50.304;19.028;2023-03-20T07:03:43;98374.13;;;12.28;45.47
40982;BME280;26708;50.304;19.028;2023-03-20T07:05:49;98371.44;;;12.31;45.61
40982;BME280;26708;50.304;19.028;2023-03-20T07:07:56;98374.91;;;12.33;45.50
40982;BME280;26708;50.304;19.028;2023-03-20T07:10:02;98374.97;;;12.30;45.42
40982;BME280;26708;50.304;19.028;2023-03-20T07:12:10;98378.47;;;12.29;45.36
40982;BME280;26708;50.304;19.028;2023-03-20T07:14:21;98377.56;;;12.30;45.83
40982;BME280;26708;50.304;19.028;2023-03-20T07:16:33;98363.75;;;12.16;46.68
40982;BME280;26708;50.304;19.028;2023-03-20T07:18:38;98369.88;;;12.16;46.93
40982;BME280;26708;50.304;19.028;2023-03-20T07:20:43;98335.09;;;11.95;47.17
40982;BME280;26708;50.304;19.028;2023-03-20T07:22:48;98380.25;;;12.25;47.52
40982;BME280;26708;50.304;19.028;2023-03-20T07:24:57;98375.91;;;12.23;47.56
40982;BME280;26708;50.304;19.028;2023-03-20T07:27:02;98393.34;;;12.28;47.50
40982;BME280;26708;50.304;19.028;2023-03-20T07:29:09;98401.22;;;12.28;47.24
40982;BME280;26708;50.304;19.028;2023-03-20T07:31:22;98394.22;;;12.29;46.18
40982;BME280;26708;50.304;19.028;2023-03-20T07:33:41;98389.88;;;12.25;46.11
40982;BME280;26708;50.304;19.028;2023-03-20T07:35:51;98395.19;;;12.19;46.33
40982;BME280;26708;50.304;19.028;2023-03-20T07:37:57;98386.47;;;12.15;46.38
40982;BME280;26708;50.304;19.028;2023-03-20T07:40:03;98391.72;;;12.17;46.58
40982;BME280;26708;50.304;19.028;2023-03-20T07:42:29;98342.19;;;11.90;46.52
40982;BME280;26708;50.304;19.028;2023-03-20T07:44:43;98395.16;;;12.22;46.66
40982;BME280;26708;50.304;19.028;2023-03-20T07:46:50;98401.28;;;12.22;46.99
40982;BME280;26708;50.304;19.028;2023-03-20T07:48:58;98370.84;;;12.08;47.43
40982;BME280;26708;50.304;19.028;2023-03-20T07:51:03;98410.94;;;12.20;47.59
40982;BME280;26708;50.304;19.028;2023-03-20T07:53:09;98389.16;;;12.14;47.86
40982;BME280;26708;50.304;19.028;2023-03-20T07:55:15;98356.97;;;11.94;48.41
40982;BME280;26708;50.304;19.028;2023-03-20T07:57:20;98402.16;;;12.21;48.66
40982;BME280;26708;50.304;19.028;2023-03-20T07:59:25;98403.91;;;12.22;49.05
40982;BME280;26708;50.304;19.028;2023-03-20T08:01:31;98403.03;;;12.22;49.38
40982;BME280;26708;50.304;19.028;2023-03-20T08:03:38;98399.53;;;12.24;49.68
40982;BME280;26708;50.304;19.028;2023-03-20T08:05:42;98404.78;;;12.23;49.99
40982;BME280;26708;50.304;19.028;2023-03-20T08:07:48;98362.16;;;12.00;50.39
40982;BME280;26708;50.304;19.028;2023-03-20T08:09:52;98401.25;;;12.25;50.64
40982;BME280;26708;50.304;19.028;2023-03-20T08:11:57;98392.50;;;12.26;50.53
40982;BME280;26708;50.304;19.028;2023-03-20T08:14:02;98395.03;;;12.32;50.76
40982;BME280;26708;50.304;19.028;2023-03-20T08:16:08;98396.72;;;12.38;51.08
40982;BME280;26708;50.304;19.028;2023-03-20T08:18:13;98397.50;;;12.46;50.92
40982;BME280;26708;50.304;19.028;2023-03-20T08:20:20;98394.69;;;12.58;51.06
40982;BME280;26708;50.304;19.028;2023-03-20T08:22:25;98405.03;;;12.70;50.75
40982;BME280;26708;50.304;19.028;2023-03-20T08:24:30;98397.91;;;12.79;50.75
40982;BME280;26708;50.304;19.028;2023-03-20T08:26:35;98395.16;;;12.87;50.76
40982;BME280;26708;50.304;19.028;2023-03-20T08:28:40;98393.38;;;12.89;50.72
40982;BME280;26708;50.304;19.028;2023-03-20T08:30:45;98402.13;;;12.89;50.87
40982;BME280;26708;50.304;19.028;2023-03-20T08:32:50;98403.88;;;12.90;50.85
40982;BME280;26708;50.304;19.028;2023-03-20T08:34:55;98383.00;;;12.81;50.88
40982;BME280;26708;50.304;19.028;2023-03-20T08:37:03;98392.41;;;12.96;51.11
40982;BME280;26708;50.304;19.028;2023-03-20T08:39:09;98390.56;;;13.02;51.27
40982;BME280;26708;50.304;19.028;2023-03-20T08:41:13;98398.47;;;13.02;51.00
40982;BME280;26708;50.304;19.028;2023-03-20T08:43:18;98405.44;;;13.05;51.15
40982;BME280;26708;50.304;19.028;2023-03-20T08:45:24;98404.53;;;13.07;51.20
40982;BME280;26708;50.304;19.028;2023-03-20T08:47:29;98388.78;;;13.03;51.34
40982;BME280;26708;50.304;19.028;2023-03-20T08:49:33;98387.06;;;13.03;51.37
40982;BME280;26708;50.304;19.028;2023-03-20T08:51:39;98404.41;;;13.15;51.38
40982;BME280;26708;50.304;19.028;2023-03-20T08:53:46;98388.75;;;13.06;51.27
40982;BME280;26708;50.304;19.028;2023-03-20T08:55:52;98381.69;;;13.11;51.54
40982;BME280;26708;50.304;19.028;2023-03-20T08:57:57;98383.41;;;13.13;52.19
40982;BME280;26708;50.304;19.028;2023-03-20T09:00:03;98399.81;;;13.29;51.92
40982;BME280;26708;50.304;19.028;2023-03-20T09:02:10;98399.75;;;13.32;52.54
40982;BME280;26708;50.304;19.028;2023-03-20T09:04:16;98405.81;;;13.37;52.53
40982;BME280;26708;50.304;19.028;2023-03-20T09:06:21;98404.84;;;13.42;52.77
40982;BME280;26708;50.304;19.028;2023-03-20T09:08:26;98404.78;;;13.47;53.00
40982;BME280;26708;50.304;19.028;2023-03-20T09:10:34;98409.13;;;13.49;53.12
40982;BME280;26708;50.304;19.028;2023-03-20T09:12:38;98408.16;;;13.53;53.30
40982;BME280;26708;50.304;19.028;2023-03-20T09:14:43;98405.44;;;13.58;53.23
40982;BME280;26708;50.304;19.028;2023-03-20T09:16:49;98415.88;;;13.62;53.33
40982;BME280;26708;50.304;19.028;2023-03-20T09:18:54;98400.00;;;13.70;53.03
40982;BME280;26708;50.304;19.028;2023-03-20T09:20:59;98405.09;;;13.77;53.28
40982;BME280;26708;50.304;19.028;2023-03-20T09:23:04;98412.00;;;13.84;53.53
40982;BME280;26708;50.304;19.028;2023-03-20T09:25:09;98404.91;;;13.88;53.42
40982;BME280;26708;50.304;19.028;2023-03-20T09:27:16;98404.81;;;13.94;53.41
40982;BME280;26708;50.304;19.028;2023-03-20T09:29:22;98402.03;;;14.01;53.26
40982;BME280;26708;50.304;19.028;2023-03-20T09:31:27;98399.28;;;14.10;53.00
40982;BME280;26708;50.304;19.028;2023-03-20T09:33:31;98385.22;;;14.10;53.17
40982;BME280;26708;50.304;19.028;2023-03-20T09:35:37;98398.16;;;14.22;52.84
40982;BME280;26708;50.304;19.028;2023-03-20T09:37:41;98368.72;;;14.00;53.03
40982;BME280;26708;50.304;19.028;2023-03-20T09:39:46;98386.72;;;14.23;52.82
40982;BME280;26708;50.304;19.028;2023-03-20T09:41:52;98393.53;;;14.34;52.47
40982;BME280;26708;50.304;19.028;2023-03-20T09:44:09;98400.22;;;14.49;51.97
40982;BME280;26708;50.304;19.028;2023-03-20T09:46:34;98403.44;;;14.64;51.92
40982;BME280;26708;50.304;19.028;2023-03-20T09:49:01;98376.19;;;14.65;51.73
40982;BME280;26708;50.304;19.028;2023-03-20T09:51:23;98395.09;;;14.84;51.56
40982;BME280;26708;50.304;19.028;2023-03-20T09:53:39;98348.09;;;14.64;51.10
40982;BME280;26708;50.304;19.028;2023-03-20T09:55:51;98399.28;;;14.91;51.28
40982;BME280;26708;50.304;19.028;2023-03-20T09:58:04;98402.88;;;14.88;51.06
40982;BME280;26708;50.304;19.028;2023-03-20T10:00:19;98402.03;;;14.86;51.20
40982;BME280;26708;50.304;19.028;2023-03-20T10:02:36;98351.06;;;14.49;50.99
40982;BME280;26708;50.304;19.028;2023-03-20T10:04:48;98403.28;;;14.70;51.12
40982;BME280;26708;50.304;19.028;2023-03-20T10:06:56;98398.19;;;14.63;51.45
40982;BME280;26708;50.304;19.028;2023-03-20T10:09:01;98391.22;;;14.59;51.86
40982;BME280;26708;50.304;19.028;2023-03-20T10:11:27;98398.19;;;14.61;51.87
40982;BME280;26708;50.304;19.028;2023-03-20T10:13:59;98386.94;;;14.55;51.45
40982;BME280;26708;50.304;19.028;2023-03-20T10:16:32;98396.56;;;14.56;51.98
40982;BME280;26708;50.304;19.028;2023-03-20T10:18:59;98395.69;;;14.55;52.28
40982;BME280;26708;50.304;19.028;2023-03-20T10:21:15;98395.63;;;14.60;52.22
40982;BME280;26708;50.304;19.028;2023-03-20T10:23:32;98393.72;;;14.66;52.05
40982;BME280;26708;50.304;19.028;2023-03-20T10:25:43;98391.94;;;14.67;52.01
40982;BME280;26708;50.304;19.028;2023-03-20T10:27:58;98405.88;;;14.72;51.92
40982;BME280;26708;50.304;19.028;2023-03-20T10:30:21;98396.16;;;14.74;51.87
40982;BME280;26708;50.304;19.028;2023-03-20T10:33:03;98399.91;;;14.64;51.89
40982;BME280;26708;50.304;19.028;2023-03-20T10:35:29;98372.25;;;14.43;52.02
40982;BME280;26708;50.304;19.028;2023-03-20T10:37:54;98399.00;;;14.65;52.20
40982;BME280;26708;50.304;19.028;2023-03-20T10:40:26;98375.63;;;14.50;52.32
40982;BME280;26708;50.304;19.028;2023-03-20T10:42:37;98400.03;;;14.58;52.51
40982;BME280;26708;50.304;19.028;2023-03-20T10:44:50;98392.13;;;14.58;52.84
40982;BME280;26708;50.304;19.028;2023-03-20T10:47:02;98369.66;;;14.42;52.35
40982;BME280;26708;50.304;19.028;2023-03-20T10:49:19;98399.13;;;14.59;52.62
40982;BME280;26708;50.304;19.028;2023-03-20T10:51:40;98397.34;;;14.61;52.70
40982;BME280;26708;50.304;19.028;2023-03-20T10:53:54;98390.41;;;14.57;52.60
40982;BME280;26708;50.304;19.028;2023-03-20T10:56:08;98386.66;;;14.67;52.77
40982;BME280;26708;50.304;19.028;2023-03-20T10:58:21;98373.47;;;14.67;52.94
40982;BME280;26708;50.304;19.028;2023-03-20T11:00:28;98346.44;;;14.59;52.47
40982;BME280;26708;50.304;19.028;2023-03-20T11:02:34;98384.47;;;14.87;52.23
40982;BME280;26708;50.304;19.028;2023-03-20T11:04:42;98374.09;;;14.79;52.12
40982;BME280;26708;50.304;19.028;2023-03-20T11:06:54;98385.28;;;14.89;52.40
40982;BME280;26708;50.304;19.028;2023-03-20T11:09:11;98370.47;;;14.85;52.12
40982;BME280;26708;50.304;19.028;2023-03-20T11:11:23;98384.25;;;14.96;52.09
40982;BME280;26708;50.304;19.028;2023-03-20T11:13:33;98381.50;;;15.02;51.96
40982;BME280;26708;50.304;19.028;2023-03-20T11:15:40;98380.59;;;15.04;51.91
40982;BME280;26708;50.304;19.028;2023-03-20T11:17:54;98378.84;;;15.03;51.81
40982;BME280;26708;50.304;19.028;2023-03-20T11:20:05;98271.25;;;14.46;51.89
40982;BME280;26708;50.304;19.028;2023-03-20T11:22:24;98368.13;;;15.11;51.52
40982;BME280;26708;50.304;19.028;2023-03-20T11:24:36;98368.94;;;15.13;51.52
40982;BME280;26708;50.304;19.028;2023-03-20T11:26:44;98360.19;;;15.11;51.44
40982;BME280;26708;50.304;19.028;2023-03-20T11:28:54;98366.06;;;15.22;51.18
40982;BME280;26708;50.304;19.028;2023-03-20T11:31:03;98351.22;;;15.19;50.84
40982;BME280;26708;50.304;19.028;2023-03-20T11:33:10;98372.06;;;15.30;50.96